Cote-Saint-Luc, Canada
Current Conditions -  °F | °C
As of 1:00 PM on Saturday 25 Oct 2014 (Local Time) from CYUL Reporting Station
Overcast Overcast  
Wind Chill: 54°   Ceiling: 3000
Heat Index: 54°   Visibility: 15mi
Dew Point: 41°   Wind: 14mph
Humidity: 62%   Direction: 210°SSW
Pressure: 29.59"   Gusts: NA
Location:  45.45°N, 73.67°W
Report Text: CYUL 251700Z 21012KT 15SM BKN030 OVC120 12/05 A2959 RMK SC6AC2 PRESFR SLP021
Loading
Personal Weather Stations






























Interactive Weather Map
Tropical Storm Tracking
New forecast layout! Learn more

10-Day Weather Forecast

Advertisements
Track Severe Weather on mobile